Time;durP1;ratioP1;P1;durP2;ratioP2;P2;SDS_P1;SDS_P2;PMS_P1;PMS_P2;Temp;Humidity;BMP_temperature;BMP_pressure;BME280_temperature;BME280_humidity;BME280_pressure;Samples;Min_cycle;Max_cycle;Signal;HPM_P1;HPM_P2
2023/11/02 00:02:21;;;;;;;6.05;1.70;;;;;;;12.30;100.00;99000.72;5337048;27;20031;-73
2023/11/02 00:04:55;;;;;;;9.23;1.80;;;;;;;12.24;100.00;98985.75;5335087;27;20035;-74
2023/11/02 00:07:30;;;;;;;3.28;1.02;;;;;;;12.23;100.00;98973.59;5332365;27;20023;-73
2023/11/02 00:10:03;;;;;;;6.97;2.13;;;;;;;12.24;100.00;98956.88;5332077;27;20026;-73
2023/11/02 00:12:35;;;;;;;3.47;1.20;;;;;;;12.26;100.00;98967.97;5334592;27;20019;-73
2023/11/02 00:15:07;;;;;;;4.28;1.20;;;;;;;12.24;100.00;98949.00;5334405;27;20029;-73
2023/11/02 00:17:48;;;;;;;3.88;1.13;;;;;;;12.47;100.00;98948.00;5326386;27;20049;-73
2023/11/02 00:20:31;;;;;;;4.55;1.60;;;;;;;12.48;100.00;98936.47;5335264;27;20027;-73
2023/11/02 00:23:04;;;;;;;3.50;1.20;;;;;;;12.32;100.00;98929.66;5335155;27;20381;-73
2023/11/02 00:25:42;;;;;;;;;;;;;;;12.99;100.00;98925.72;5333964;27;20476;-73
2023/11/02 00:28:14;;;;;;;7.40;1.30;;;;;;;12.36;100.00;98909.91;5315545;27;19976;-72
2023/11/02 00:30:48;;;;;;;3.78;1.50;;;;;;;12.39;100.00;98914.78;5335261;27;20071;-73
2023/11/02 00:33:20;;;;;;;5.75;1.40;;;;;;;12.37;100.00;98904.47;5335441;27;20027;-73
2023/11/02 00:35:53;;;;;;;4.43;1.05;;;;;;;12.38;100.00;98877.19;5333913;27;20389;-73
2023/11/02 00:38:27;;;;;;;4.03;1.00;;;;;;;12.38;100.00;98876.38;5334129;27;20023;-73
2023/11/02 00:41:00;;;;;;;3.83;1.52;;;;;;;12.37;100.00;98874.75;5334604;27;20027;-73
2023/11/02 00:43:32;;;;;;;5.00;1.48;;;;;;;12.31;100.00;98860.59;5325960;27;20035;-73
2023/11/02 00:46:04;;;;;;;6.68;1.35;;;;;;;12.38;100.00;98863.25;5334025;27;20066;-73
2023/11/02 00:48:36;;;;;;;4.55;1.20;;;;;;;12.39;100.00;98854.38;5334590;27;20096;-74
2023/11/02 00:51:19;;;;;;;2.95;1.40;;;;;;;12.58;100.00;98847.66;5334299;27;20030;-74
2023/11/02 00:53:59;;;;;;;3.30;1.27;;;;;;;12.45;100.00;98827.34;5336098;27;20369;-73
2023/11/02 00:56:36;;;;;;;8.65;1.38;;;;;;;12.44;100.00;98830.19;5335874;27;20019;-73
2023/11/02 00:59:17;;;;;;;6.30;1.38;;;;;;;12.50;100.00;98832.03;5331924;27;20480;-73
2023/11/02 01:01:49;;;;;;;5.20;1.13;;;;;;;12.35;100.00;98824.22;5333269;27;20051;-73
2023/11/02 01:04:48;;;;;;;4.25;1.40;;;;;;;12.66;100.00;98802.84;5335174;27;20028;-74
2023/11/02 01:07:20;;;;;;;4.85;1.27;;;;;;;12.47;100.00;98790.41;5333373;27;20027;-74
2023/11/02 01:09:57;;;;;;;3.00;1.10;;;;;;;12.58;100.00;98788.03;5329007;27;20382;-73
2023/11/02 01:12:31;;;;;;;3.55;1.00;;;;;;;12.34;100.00;98770.91;5327041;27;20042;-73
2023/11/02 01:15:11;;;;;;;4.32;1.13;;;;;;;12.44;100.00;98777.66;5333212;27;20031;-73
2023/11/02 01:17:43;;;;;;;7.00;1.55;;;;;;;12.31;100.00;98759.97;5334829;28;20495;-73
2023/11/02 01:20:41;;;;;;;2.40;1.10;;;;;;;12.77;100.00;98765.50;5330389;27;20038;-74
2023/11/02 01:23:15;;;;;;;6.25;1.25;;;;;;;12.44;100.00;98760.06;5329369;28;20288;-73
2023/11/02 01:25:52;;;;;;;4.75;1.10;;;;;;;12.40;100.00;98748.34;5330434;28;20035;-73
2023/11/02 01:28:43;;;;;;;6.72;1.40;;;;;;;12.74;100.00;98733.56;5334475;28;20412;-73
2023/11/02 01:31:22;;;;;;;6.68;1.60;;;;;;;12.64;100.00;98728.66;5334310;28;20038;-73
2023/11/02 01:34:02;;;;;;;4.38;1.70;;;;;;;12.60;100.00;98714.28;5331538;28;20074;-73
2023/11/02 01:36:39;;;;;;;6.70;1.33;;;;;;;12.51;100.00;98704.97;5333637;28;20038;-73
2023/11/02 01:39:13;;;;;;;4.38;1.58;;;;;;;12.63;100.00;98698.16;5325981;28;20046;-73
2023/11/02 01:41:55;;;;;;;4.35;1.17;;;;;;;12.47;100.00;98680.91;5335579;28;20360;-73
2023/11/02 01:44:40;;;;;;;4.65;1.17;;;;;;;12.67;100.00;98665.22;5333124;28;20038;-73
2023/11/02 01:47:35;;;;;;;6.35;1.38;;;;;;;12.61;100.00;98648.44;5333792;28;20041;-73
2023/11/02 01:50:17;;;;;;;4.00;1.65;;;;;;;12.62;100.00;98621.16;5333320;28;20031;-74
2023/11/02 01:53:01;;;;;;;6.50;1.85;;;;;;;12.70;100.00;98617.53;5331835;28;20043;-73
2023/11/02 01:55:53;;;;;;;4.05;1.15;;;;;;;12.72;100.00;98604.19;5336294;27;20038;-73
2023/11/02 01:58:34;;;;;;;6.25;1.95;;;;;;;12.63;100.00;98569.44;5335417;27;20032;-73
2023/11/02 02:01:17;;;;;;;5.13;1.25;;;;;;;12.72;100.00;98551.66;5338991;27;20373;-73
2023/11/02 02:04:15;;;;;;;4.68;1.00;;;;;;;12.88;100.00;98540.78;5338467;27;20027;-73
2023/11/02 02:07:03;;;;;;;5.43;1.77;;;;;;;12.63;100.00;98522.16;5338705;27;20046;-73
2023/11/02 02:10:09;;;;;;;3.95;1.08;;;;;;;12.95;100.00;98493.44;5338111;27;20034;-72
2023/11/02 02:13:03;;;;;;;7.70;1.60;;;;;;;12.95;100.00;98494.25;5338531;27;20031;-73
2023/11/02 02:16:05;;;;;;;6.10;1.35;;;;;;;12.97;100.00;98465.16;5337958;27;20036;-73
2023/11/02 02:18:51;;;;;;;4.28;1.27;;;;;;;12.88;100.00;98446.97;5327615;27;20058;-73
2023/11/02 02:21:59;;;;;;;5.28;1.50;;;;;;;13.06;100.00;98450.78;5336650;27;20034;-73
2023/11/02 02:24:52;;;;;;;5.25;1.27;;;;;;;13.01;100.00;98442.72;5340464;27;20027;-73
2023/11/02 02:28:02;;;;;;;4.53;1.33;;;;;;;13.02;100.00;98424.09;5338521;27;20035;-73
2023/11/02 02:30:51;;;;;;;3.47;1.20;;;;;;;12.85;100.00;98407.97;5339617;27;20508;-73
2023/11/02 02:33:31;;;;;;;3.67;1.08;;;;;;;12.64;100.00;98387.97;5334889;27;20023;-73
2023/11/02 02:36:24;;;;;;;4.70;1.23;;;;;;;12.77;100.00;98371.41;5337747;27;20046;-73
2023/11/02 02:39:07;;;;;;;6.88;1.80;;;;;;;12.78;100.00;98365.13;5337183;27;20041;-73
2023/11/02 02:41:43;;;;;;;5.85;1.55;;;;;;;12.65;100.00;98352.81;5337290;27;20027;-73
2023/11/02 02:44:17;;;;;;;3.83;1.20;;;;;;;12.58;100.00;98340.72;5339017;27;20031;-73
2023/11/02 02:46:51;;;;;;;7.63;1.20;;;;;;;12.62;100.00;98326.97;5335223;27;20050;-73
2023/11/02 02:49:25;;;;;;;5.78;1.33;;;;;;;12.59;100.00;98318.69;5337096;27;20412;-72
2023/11/02 02:51:58;;;;;;;7.57;1.65;;;;;;;12.63;100.00;98304.13;5339109;27;20047;-73
2023/11/02 02:54:31;;;;;;;;;;;;;;;13.29;100.00;98285.50;5339810;27;20035;-73
2023/11/02 02:57:04;;;;;;;6.70;1.55;;;;;;;12.81;100.00;98259.63;5339165;27;19919;-73
2023/11/02 02:59:40;;;;;;;4.18;1.40;;;;;;;12.83;100.00;98235.75;5338681;27;20035;-73
2023/11/02 03:02:14;;;;;;;6.93;1.48;;;;;;;12.71;100.00;98208.53;5329340;27;20031;-73
2023/11/02 03:04:49;;;;;;;9.05;2.00;;;;;;;12.77;100.00;98203.25;5336462;27;20035;-73
2023/11/02 03:07:24;;;;;;;6.60;1.58;;;;;;;12.83;100.00;98207.66;5336414;27;20384;-73
2023/11/02 03:10:02;;;;;;;7.65;1.50;;;;;;;13.01;100.00;98195.66;5333899;27;20030;-73
2023/11/02 03:12:40;;;;;;;6.93;1.40;;;;;;;12.89;100.00;98195.50;5336793;27;20027;-73
2023/11/02 03:15:15;;;;;;;3.20;0.98;;;;;;;12.81;100.00;98144.00;5334277;27;20019;-73
2023/11/02 03:18:09;;;;;;;5.97;1.35;;;;;;;13.10;100.00;98102.38;5334932;27;20043;-73
2023/11/02 03:20:41;;;;;;;5.22;1.30;;;;;;;12.91;100.00;98077.84;5336202;27;20027;-73
2023/11/02 03:23:28;;;;;;;6.77;1.50;;;;;;;13.11;100.00;98090.88;5335455;27;20484;-73
2023/11/02 03:26:06;;;;;;;6.18;1.50;;;;;;;12.98;100.00;98167.97;5331983;27;20019;-72
2023/11/02 03:28:59;;;;;;;4.72;1.70;;;;;;;13.26;100.00;98188.66;5336750;27;20035;-73
2023/11/02 03:31:47;;;;;;;5.38;2.05;;;;;;;13.24;100.00;98214.34;5321377;27;20038;-73
2023/11/02 03:34:51;;;;;;;5.35;1.40;;;;;;;13.27;100.00;98206.03;5338383;27;20479;-73
2023/11/02 03:37:35;;;;;;;6.32;1.52;;;;;;;13.23;100.00;98175.94;5323733;27;20050;-72
2023/11/02 03:40:29;;;;;;;7.45;1.73;;;;;;;13.14;100.00;98148.25;5337256;27;20046;-73
2023/11/02 03:43:05;;;;;;;5.30;1.20;;;;;;;13.17;100.00;98100.50;5337656;27;20461;-73
2023/11/02 03:45:54;;;;;;;5.10;1.30;;;;;;;13.24;100.00;98097.88;5335073;27;20031;-72
2023/11/02 03:59:16;;;;;;;5.57;1.20;;;;;;;13.52;100.00;97973.78;5311382;28;20032;-73
2023/11/02 04:01:57;;;;;;;5.18;1.20;;;;;;;13.30;100.00;97945.31;5313463;27;20048;-73
2023/11/02 04:04:56;;;;;;;3.55;1.00;;;;;;;13.40;100.00;97926.38;5316223;28;20024;-73
2023/11/02 04:07:40;;;;;;;4.28;1.10;;;;;;;13.33;100.00;97934.38;5313601;28;20358;-73
2023/11/02 04:10:12;;;;;;;4.85;1.42;;;;;;;13.27;100.00;97937.88;5316176;28;20028;-73
2023/11/02 04:13:08;;;;;;;3.92;1.02;;;;;;;13.33;100.00;97938.81;5312245;28;20373;-73
2023/11/02 04:15:40;;;;;;;4.00;0.90;;;;;;;13.26;100.00;97959.09;5314283;28;20036;-72
2023/11/02 04:18:12;;;;;;;3.17;1.00;;;;;;;13.24;100.00;97969.84;5318216;28;20530;-73
2023/11/02 04:20:45;;;;;;;5.75;1.30;;;;;;;13.25;100.00;97942.53;5317288;28;20496;-73
2023/11/02 04:23:20;;;;;;;3.63;1.10;;;;;;;13.24;100.00;97903.31;5317790;28;20028;-73
2023/11/02 04:25:55;;;;;;;6.10;1.00;;;;;;;13.28;100.00;97897.41;5307474;28;20479;-73
2023/11/02 04:28:27;;;;;;;3.40;0.80;;;;;;;13.24;100.00;97877.81;5314520;28;20039;-73
2023/11/02 04:30:59;;;;;;;3.92;1.00;;;;;;;13.22;100.00;97879.03;5316448;28;20024;-73
2023/11/02 04:33:31;;;;;;;3.38;1.10;;;;;;;13.28;100.00;97859.78;5318079;28;20026;-73
2023/11/02 04:36:04;;;;;;;4.57;0.82;;;;;;;13.14;100.00;97854.66;5316285;28;20027;-73
2023/11/02 04:38:36;;;;;;;3.45;1.25;;;;;;;13.22;100.00;97855.38;5306383;28;20058;-73
2023/11/02 04:41:08;;;;;;;2.22;0.75;;;;;;;13.20;100.00;97837.19;5309872;28;20035;-73
2023/11/02 04:43:41;;;;;;;2.60;0.90;;;;;;;13.15;100.00;97821.28;5318034;28;20028;-73
2023/11/02 04:46:12;;;;;;;4.00;0.90;;;;;;;13.18;100.00;97841.88;5313724;28;20116;-73
2023/11/02 04:48:45;;;;;;;3.45;1.15;;;;;;;13.18;100.00;97838.44;5317706;28;20027;-73
2023/11/02 04:51:17;;;;;;;3.88;1.00;;;;;;;13.22;100.00;97827.28;5317824;28;20372;-73
2023/11/02 04:53:50;;;;;;;2.80;1.27;;;;;;;13.24;100.00;97806.84;5308290;28;20031;-73
2023/11/02 04:56:22;;;;;;;1.95;0.60;;;;;;;13.27;100.00;97811.66;5317263;28;20039;-72
2023/11/02 04:58:54;;;;;;;5.60;0.88;;;;;;;13.28;100.00;97797.50;5308341;28;20638;-72
2023/11/02 05:01:26;;;;;;;2.28;0.80;;;;;;;13.28;100.00;97760.69;5311090;28;20038;-72
2023/11/02 05:04:00;;;;;;;4.25;0.98;;;;;;;13.31;100.00;97769.97;5316154;28;20035;-73
2023/11/02 05:06:31;;;;;;;2.85;0.90;;;;;;;13.28;100.00;97778.28;5307641;28;20476;-72
2023/11/02 05:09:04;;;;;;;4.88;1.23;;;;;;;13.20;100.00;97782.00;5315001;28;20024;-73
2023/11/02 05:11:36;;;;;;;3.33;0.80;;;;;;;13.27;100.00;97790.63;5289951;28;20039;-73
2023/11/02 05:14:08;;;;;;;3.60;1.17;;;;;;;13.27;100.00;97774.06;5316510;28;20127;-73
2023/11/02 05:16:40;;;;;;;2.88;0.90;;;;;;;13.25;100.00;97753.22;5317381;28;20035;-72
2023/11/02 05:19:12;;;;;;;1.90;0.60;;;;;;;13.27;100.00;97751.19;5311303;28;20115;-72
2023/11/02 05:21:43;;;;;;;3.60;0.77;;;;;;;13.26;100.00;97748.78;5314604;28;20085;-72
2023/11/02 05:24:15;;;;;;;2.92;0.80;;;;;;;13.26;100.00;97746.16;5317290;28;20954;-73
2023/11/02 05:26:47;;;;;;;2.08;0.80;;;;;;;13.24;100.00;97749.00;5306941;28;20027;-72
2023/11/02 05:29:21;;;;;;;2.72;1.08;;;;;;;13.25;100.00;97732.19;5318199;28;20031;-73
2023/11/02 05:31:53;;;;;;;6.05;0.80;;;;;;;13.21;100.00;97711.81;5321367;28;20031;-73
2023/11/02 05:34:24;;;;;;;3.75;1.00;;;;;;;13.25;100.00;97726.94;5321540;28;20115;-72
2023/11/02 05:36:56;;;;;;;1.90;0.70;;;;;;;13.30;100.00;97716.56;5319438;27;20113;-72
2023/11/02 05:39:28;;;;;;;2.88;0.75;;;;;;;13.28;100.00;97705.47;5318774;28;20028;-73
2023/11/02 05:42:00;;;;;;;4.63;0.82;;;;;;;13.21;100.00;97691.59;5308789;28;20114;-73
2023/11/02 05:44:32;;;;;;;4.43;0.95;;;;;;;13.17;100.00;97685.19;5280622;28;20115;-73
2023/11/02 05:47:04;;;;;;;3.50;1.10;;;;;;;13.11;100.00;97678.22;5305787;28;20036;-73
2023/11/02 05:49:36;;;;;;;2.78;0.90;;;;;;;13.08;100.00;97684.69;5315680;28;20040;-73
2023/11/02 05:52:08;;;;;;;4.43;1.00;;;;;;;13.03;100.00;97681.13;5316798;28;20491;-73
2023/11/02 05:54:40;;;;;;;3.08;1.25;;;;;;;13.00;100.00;97671.88;5317877;28;20455;-73
2023/11/02 05:57:12;;;;;;;2.85;0.82;;;;;;;12.84;100.00;97672.47;5321605;28;20169;-73
2023/11/02 05:59:43;;;;;;;2.05;0.65;;;;;;;12.88;100.00;97663.16;5319738;28;20092;-73
2023/11/02 06:02:15;;;;;;;2.35;0.88;;;;;;;12.87;100.00;97662.34;5320899;28;20147;-73
2023/11/02 06:04:47;;;;;;;2.95;1.15;;;;;;;12.86;100.00;97667.81;5311364;28;20158;-73
2023/11/02 06:07:19;;;;;;;2.60;1.08;;;;;;;12.73;100.00;97666.19;5319084;28;20057;-73
2023/11/02 06:09:51;;;;;;;2.45;0.93;;;;;;;12.66;100.00;97663.63;5320371;28;20039;-73
2023/11/02 06:12:23;;;;;;;2.10;0.73;;;;;;;12.66;100.00;97658.38;5322308;28;20098;-73
2023/11/02 06:14:55;;;;;;;2.38;0.80;;;;;;;12.59;100.00;97646.34;5314218;28;20032;-73
2023/11/02 06:17:27;;;;;;;1.80;0.68;;;;;;;12.65;100.00;97637.56;5316928;28;20032;-73
2023/11/02 06:19:59;;;;;;;2.08;0.70;;;;;;;12.59;100.00;97649.78;5320663;28;20158;-73
2023/11/02 06:22:31;;;;;;;1.92;0.65;;;;;;;12.58;100.00;97644.75;5319489;28;20123;-73
2023/11/02 06:25:03;;;;;;;5.35;0.90;;;;;;;12.67;100.00;97638.16;5316652;28;20027;-73
2023/11/02 06:27:35;;;;;;;1.63;0.80;;;;;;;12.63;100.00;97632.53;5316754;28;20211;-73
2023/11/02 06:30:08;;;;;;;1.77;0.80;;;;;;;12.63;100.00;97626.50;5318719;27;20099;-73
2023/11/02 06:32:39;;;;;;;4.25;0.80;;;;;;;12.69;100.00;97616.91;5314377;28;20028;-73
2023/11/02 06:35:11;;;;;;;2.88;1.00;;;;;;;12.63;100.00;97605.50;5317069;28;20039;-73
2023/11/02 06:38:00;;;;;;;1.95;0.60;;;;;;;12.87;100.00;97593.22;5314230;28;20028;-73
2023/11/02 06:40:32;;;;;;;2.97;0.90;;;;;;;12.63;100.00;97584.47;5313863;28;20063;-74
2023/11/02 06:43:04;;;;;;;2.08;0.70;;;;;;;12.57;100.00;97577.47;5312693;28;20020;-73
2023/11/02 06:45:36;;;;;;;2.00;0.73;;;;;;;12.55;100.00;97569.03;5304652;28;20040;-73
2023/11/02 06:48:08;;;;;;;5.20;0.80;;;;;;;12.57;100.00;97553.84;5318131;28;20031;-73
2023/11/02 06:50:40;;;;;;;1.65;0.73;;;;;;;12.63;100.00;97538.00;5309924;28;20042;-73
2023/11/02 06:53:11;;;;;;;1.77;0.90;;;;;;;12.63;100.00;97539.84;5315753;28;20507;-73
2023/11/02 06:55:44;;;;;;;2.50;1.10;;;;;;;12.65;100.00;97517.59;5312802;28;20038;-73
2023/11/02 06:58:15;;;;;;;2.38;0.82;;;;;;;12.65;100.00;97495.75;5317332;28;20123;-73
2023/11/02 07:00:47;;;;;;;2.50;0.85;;;;;;;12.71;100.00;97481.72;5313718;28;20119;-73
2023/11/02 07:03:20;;;;;;;2.10;0.77;;;;;;;12.69;100.00;97491.69;5317489;28;20031;-73
2023/11/02 07:05:51;;;;;;;3.05;0.70;;;;;;;12.77;100.00;97490.53;5315347;27;20058;-73
2023/11/02 07:08:23;;;;;;;2.90;1.05;;;;;;;12.79;100.00;97491.09;5314878;28;20106;-73
2023/11/02 07:10:55;;;;;;;1.73;0.70;;;;;;;12.83;100.00;97490.41;5301059;28;20036;-73
2023/11/02 07:13:27;;;;;;;1.80;0.90;;;;;;;12.88;100.00;97477.41;5311063;28;20031;-73
2023/11/02 07:15:59;;;;;;;2.20;0.60;;;;;;;12.95;100.00;97481.75;5319555;28;20047;-73
2023/11/02 07:18:31;;;;;;;2.22;0.80;;;;;;;13.01;100.00;97475.59;5318196;28;20118;-73
2023/11/02 07:21:03;;;;;;;2.08;0.60;;;;;;;13.02;100.00;97459.59;5297991;28;20122;-73
2023/11/02 07:23:38;;;;;;;3.53;0.60;;;;;;;13.09;100.00;97459.47;5320388;28;20030;-73
2023/11/02 07:26:10;;;;;;;2.22;0.70;;;;;;;13.09;100.00;97459.47;5315325;28;20039;-73
2023/11/02 07:28:41;;;;;;;5.05;1.02;;;;;;;13.15;100.00;97442.81;5316891;28;20035;-73
2023/11/02 07:31:13;;;;;;;3.08;1.17;;;;;;;13.27;100.00;97440.97;5314374;28;20544;-74
2023/11/02 07:33:45;;;;;;;2.50;0.90;;;;;;;13.28;100.00;97431.25;5316254;28;20484;-73
2023/11/02 07:36:18;;;;;;;4.03;0.80;;;;;;;13.26;100.00;97420.16;5316563;28;20424;-73
2023/11/02 07:38:49;;;;;;;4.15;0.88;;;;;;;13.41;100.00;97449.44;5313821;28;20295;-73
2023/11/02 07:41:21;;;;;;;2.40;0.90;;;;;;;13.43;100.00;97433.41;5312367;28;20115;-73
2023/11/02 07:43:53;;;;;;;1.77;0.80;;;;;;;13.48;100.00;97431.69;5314355;28;20062;-74
2023/11/02 07:46:25;;;;;;;2.63;0.95;;;;;;;13.50;100.00;97427.00;5314254;28;20077;-73
2023/11/02 07:48:57;;;;;;;4.80;1.25;;;;;;;13.64;100.00;97424.91;5316779;28;20032;-73
2023/11/02 07:51:29;;;;;;;3.97;0.90;;;;;;;13.74;100.00;97413.78;5314695;28;20110;-73
2023/11/02 07:54:01;;;;;;;3.38;1.15;;;;;;;13.92;100.00;97389.09;5313444;28;20068;-73
2023/11/02 07:56:33;;;;;;;4.90;1.67;;;;;;;13.99;100.00;97387.13;5315559;28;20036;-73
2023/11/02 07:59:05;;;;;;;3.70;1.50;;;;;;;14.10;100.00;97404.69;5310329;28;20134;-72
2023/11/02 08:01:38;;;;;;;3.42;1.10;;;;;;;14.16;100.00;97393.22;5313110;28;20023;-73
2023/11/02 08:04:10;;;;;;;5.20;1.30;;;;;;;14.25;100.00;97380.47;5314827;28;20040;-73
2023/11/02 08:06:42;;;;;;;3.17;1.17;;;;;;;14.23;100.00;97385.16;5314133;27;20531;-73
2023/11/02 08:09:14;;;;;;;3.33;0.82;;;;;;;14.23;100.00;97395.69;5314575;28;20455;-73
2023/11/02 08:11:46;;;;;;;3.70;1.00;;;;;;;14.36;100.00;97398.03;5290214;28;20072;-73
2023/11/02 08:14:19;;;;;;;5.93;1.30;;;;;;;14.34;100.00;97392.19;5316676;28;20429;-73
2023/11/02 08:16:51;;;;;;;5.35;1.00;;;;;;;14.41;100.00;97387.56;5313454;28;20046;-73
2023/11/02 08:19:23;;;;;;;3.95;0.90;;;;;;;14.31;100.00;97377.66;5315468;28;20031;-73
2023/11/02 08:21:55;;;;;;;7.57;1.20;;;;;;;14.40;100.00;97385.97;5293837;28;20133;-73
2023/11/02 08:24:27;;;;;;;5.63;1.70;;;;;;;14.41;100.00;97376.25;5313969;28;20020;-73
2023/11/02 08:26:59;;;;;;;3.30;1.10;;;;;;;14.50;100.00;97369.56;5313351;27;20031;-73
2023/11/02 08:29:33;;;;;;;4.55;1.17;;;;;;;14.61;100.00;97360.78;5315395;28;20023;-73
2023/11/02 08:32:05;;;;;;;4.03;1.00;;;;;;;14.59;100.00;97368.13;5306595;28;20027;-73
2023/11/02 08:34:41;;;;;;;5.72;1.27;;;;;;;14.71;100.00;97349.59;5313197;28;20371;-73
2023/11/02 08:37:13;;;;;;;5.90;1.60;;;;;;;14.72;100.00;97370.41;5314570;28;20027;-73
2023/11/02 08:39:45;;;;;;;2.95;1.10;;;;;;;14.75;100.00;97358.59;5313160;28;20061;-73
2023/11/02 08:42:17;;;;;;;7.60;1.65;;;;;;;14.80;100.00;97356.81;5314824;28;20031;-73
2023/11/02 08:44:49;;;;;;;5.63;1.30;;;;;;;14.80;100.00;97354.19;5314749;28;20028;-73
2023/11/02 08:47:21;;;;;;;10.00;1.27;;;;;;;14.84;100.00;97342.13;5308454;28;20024;-75
2023/11/02 08:49:53;;;;;;;5.97;1.55;;;;;;;14.88;100.00;97355.63;5304116;28;20031;-73
2023/11/02 08:52:25;;;;;;;4.10;1.00;;;;;;;14.96;100.00;97352.56;5309130;28;20032;-73
2023/11/02 08:54:57;;;;;;;4.80;1.17;;;;;;;14.99;100.00;97333.63;5316428;28;20042;-73
2023/11/02 08:57:30;;;;;;;4.50;1.30;;;;;;;15.02;100.00;97329.72;5313275;28;20260;-73
2023/11/02 09:00:03;;;;;;;4.82;1.10;;;;;;;15.10;100.00;97334.53;5327139;27;20043;-73
2023/11/02 09:02:35;;;;;;;5.90;1.42;;;;;;;15.12;100.00;97327.19;5334299;27;20039;-73
2023/11/02 09:05:07;;;;;;;7.07;1.48;;;;;;;15.15;100.00;97334.59;5334566;27;20493;-73
2023/11/02 09:07:40;;;;;;;4.03;1.00;;;;;;;15.19;100.00;97332.28;5335248;27;20419;-73
2023/11/02 09:10:12;;;;;;;3.67;1.00;;;;;;;15.26;100.00;97325.78;5333084;27;20027;-73
2023/11/02 09:12:44;;;;;;;4.45;1.15;;;;;;;15.28;100.00;97307.88;5334330;27;20035;-73
2023/11/02 09:15:16;;;;;;;5.50;1.42;;;;;;;15.36;100.00;97314.56;5336184;27;20464;-73
2023/11/02 09:17:49;;;;;;;5.35;1.42;;;;;;;15.44;100.00;97311.47;5329107;27;20035;-73
2023/11/02 09:20:21;;;;;;;8.05;1.13;;;;;;;15.58;100.00;97303.97;5334581;27;20023;-74
2023/11/02 09:22:52;;;;;;;5.38;1.50;;;;;;;15.54;100.00;97298.38;5336837;28;20173;-74
2023/11/02 09:25:24;;;;;;;11.18;1.70;;;;;;;15.55;100.00;97292.06;5329490;28;20107;-74
2023/11/02 09:27:56;;;;;;;5.82;1.45;;;;;;;15.65;100.00;97291.41;5312919;28;20127;-73
2023/11/02 09:30:28;;;;;;;5.28;1.17;;;;;;;15.66;100.00;97285.06;5314837;28;20075;-73
2023/11/02 09:33:00;;;;;;;10.45;1.88;;;;;;;15.69;100.00;97305.69;5313855;28;20031;-73
2023/11/02 09:35:33;;;;;;;7.13;1.70;;;;;;;15.80;100.00;97272.28;5314443;28;20031;-73
2023/11/02 09:38:06;;;;;;;5.68;1.20;;;;;;;15.84;100.00;97268.09;5314803;28;20042;-74
2023/11/02 09:40:38;;;;;;;5.20;1.40;;;;;;;15.89;100.00;97283.97;5314553;28;20094;-73
2023/11/02 09:43:10;;;;;;;7.50;1.35;;;;;;;15.90;100.00;97282.09;5314624;28;20047;-73
2023/11/02 09:45:43;;;;;;;3.85;1.45;;;;;;;15.99;100.00;97272.69;5333524;28;20023;-74
2023/11/02 09:48:14;;;;;;;6.15;1.58;;;;;;;15.99;100.00;97262.94;5336018;28;20381;-73
2023/11/02 09:50:47;;;;;;;8.68;1.80;;;;;;;15.96;100.00;97312.78;5335643;28;20030;-73
2023/11/02 09:53:19;;;;;;;9.05;1.70;;;;;;;16.14;100.00;97306.31;5319134;28;20030;-73
2023/11/02 09:55:52;;;;;;;3.90;1.37;;;;;;;16.15;100.00;97279.69;5334434;28;20054;-73
2023/11/02 09:58:24;;;;;;;8.23;1.60;;;;;;;16.14;100.00;97288.66;5334977;28;20027;-74
2023/11/02 10:00:59;;;;;;;5.33;1.50;;;;;;;16.12;100.00;97282.03;5333575;28;20638;-74
2023/11/02 10:03:31;;;;;;;5.47;1.92;;;;;;;16.18;100.00;97271.25;5334268;28;20677;-73
2023/11/02 10:06:03;;;;;;;6.22;1.75;;;;;;;16.25;100.00;97265.72;5333369;28;20031;-73
2023/11/02 10:08:35;;;;;;;4.60;1.47;;;;;;;16.28;100.00;97260.72;5332633;28;20042;-73
2023/11/02 10:11:19;;;;;;;7.88;1.50;;;;;;;16.49;100.00;97274.09;5331241;28;20037;-73
2023/11/02 10:13:51;;;;;;;7.57;1.65;;;;;;;16.29;100.00;97285.31;5333666;28;20507;-73
2023/11/02 10:16:24;;;;;;;3.47;1.42;;;;;;;16.31;100.00;97275.28;5333659;27;20026;-74
2023/11/02 10:18:56;;;;;;;7.38;1.73;;;;;;;16.16;100.00;97304.22;5317000;27;20047;-73
2023/11/02 10:21:28;;;;;;;7.15;1.40;;;;;;;16.12;100.00;97258.25;5328335;27;20030;-74
2023/11/02 10:24:02;;;;;;;8.10;1.48;;;;;;;16.19;100.00;97286.03;5338454;27;20182;-73
2023/11/02 10:26:34;;;;;;;5.63;1.70;;;;;;;16.13;100.00;97271.19;5336155;27;20031;-73
2023/11/02 10:29:08;;;;;;;7.82;2.28;;;;;;;16.18;100.00;97255.41;5337492;27;20042;-73
2023/11/02 10:31:42;;;;;;;6.85;1.67;;;;;;;16.36;100.00;97263.94;5340087;27;20042;-74
2023/11/02 10:34:14;;;;;;;8.73;1.60;;;;;;;16.26;100.00;97269.97;5337492;27;20031;-73
2023/11/02 10:36:51;;;;;;;6.93;1.80;;;;;;;16.32;100.00;97242.53;5338413;27;20038;-73
2023/11/02 10:39:24;;;;;;;7.80;1.60;;;;;;;16.32;100.00;97245.16;5338102;27;20034;-73
2023/11/02 10:42:01;;;;;;;5.65;1.75;;;;;;;16.48;100.00;97261.94;5337345;27;20038;-74
2023/11/02 10:44:37;;;;;;;6.50;2.20;;;;;;;16.39;100.00;97253.66;5338771;27;20035;-74
2023/11/02 10:47:14;;;;;;;5.95;1.67;;;;;;;16.46;100.00;97251.59;5337447;27;20031;-74
2023/11/02 10:49:52;;;;;;;7.05;1.90;;;;;;;16.62;100.00;97247.19;5328070;27;20464;-73
2023/11/02 10:52:51;;;;;;;6.70;1.95;;;;;;;16.87;100.00;97251.03;5339009;27;20035;-74
2023/11/02 10:55:42;;;;;;;7.72;1.77;;;;;;;16.71;100.00;97248.31;5327722;27;20054;-73
2023/11/02 10:58:16;;;;;;;6.30;1.60;;;;;;;16.51;100.00;97234.97;5336873;27;20019;-74
2023/11/02 11:00:50;;;;;;;6.60;1.90;;;;;;;16.57;100.00;97231.31;5336605;27;20034;-73
2023/11/02 11:03:22;;;;;;;10.00;2.10;;;;;;;16.61;100.00;97268.59;5335601;27;20023;-73
2023/11/02 11:05:57;;;;;;;6.03;1.42;;;;;;;16.63;100.00;97227.66;5335783;27;20031;-75
2023/11/02 11:08:29;;;;;;;11.02;1.92;;;;;;;16.50;100.00;97243.97;5333939;27;20053;-74
2023/11/02 11:11:01;;;;;;;5.50;2.05;;;;;;;16.51;100.00;97232.34;5336698;27;20031;-74
2023/11/02 11:13:36;;;;;;;6.20;1.93;;;;;;;16.40;100.00;97226.22;5335456;27;20042;-74
2023/11/02 11:16:10;;;;;;;9.07;1.63;;;;;;;16.38;100.00;97215.09;5330486;27;20380;-75
2023/11/02 11:18:41;;;;;;;7.82;1.70;;;;;;;16.43;100.00;97201.91;5335030;27;20597;-74
2023/11/02 11:21:18;;;;;;;7.95;1.60;;;;;;;16.43;100.00;97222.25;5334316;27;20037;-74
2023/11/02 11:23:53;;;;;;;9.50;1.50;;;;;;;16.23;100.00;97191.25;5337339;27;20046;-74
2023/11/02 11:26:25;;;;;;;6.45;1.52;;;;;;;16.09;100.00;97232.34;5334099;27;20023;-74
2023/11/02 11:28:57;;;;;;;6.47;1.75;;;;;;;15.88;100.00;97247.25;5334932;27;20048;-74
2023/11/02 11:31:52;;;;;;;6.32;1.80;;;;;;;16.01;100.00;97252.91;5336658;27;20031;-74
2023/11/02 11:34:25;;;;;;;7.45;1.73;;;;;;;15.66;100.00;97271.88;5335466;27;20368;-74
2023/11/02 11:37:34;;;;;;;7.93;2.15;;;;;;;15.92;100.00;97238.59;5336349;27;20042;-74
2023/11/02 11:40:29;;;;;;;5.25;1.60;;;;;;;15.92;100.00;97227.22;5334411;27;20027;-74
2023/11/02 11:43:12;;;;;;;7.78;1.90;;;;;;;15.69;100.00;97213.34;5319488;27;20505;-74
2023/11/02 11:45:55;;;;;;;8.60;1.90;;;;;;;15.72;100.00;97197.00;5333356;27;20031;-73
2023/11/02 11:48:38;;;;;;;6.97;1.65;;;;;;;16.03;100.00;97205.94;5335167;27;20042;-73
2023/11/02 11:51:31;;;;;;;;;;;;;;;16.63;100.00;97219.72;5335999;27;20503;-75
2023/11/02 11:54:08;;;;;;;6.50;1.85;;;;;;;16.21;100.00;97215.28;5321458;27;19915;-74
2023/11/02 11:56:42;;;;;;;8.38;1.65;;;;;;;16.11;100.00;97191.44;5328547;27;20386;-75
2023/11/02 11:59:14;;;;;;;5.05;1.40;;;;;;;16.14;100.00;97180.38;5335793;27;20389;-74
2023/11/02 12:02:24;;;;;;;6.00;1.98;;;;;;;16.52;100.00;97196.94;5335607;27;20033;-74
2023/11/02 12:04:56;;;;;;;6.00;1.60;;;;;;;16.18;100.00;97205.22;5334936;27;20043;-73
2023/11/02 12:07:29;;;;;;;6.85;1.88;;;;;;;16.21;100.00;97180.94;5336833;27;20023;-73
2023/11/02 12:10:03;;;;;;;8.73;2.63;;;;;;;16.33;100.00;97177.28;5331493;27;20046;-74
2023/11/02 12:12:35;;;;;;;11.13;2.33;;;;;;;16.34;100.00;97170.97;5312122;28;20481;-74
2023/11/02 12:15:20;;;;;;;6.07;1.73;;;;;;;16.57;100.00;97212.81;5313110;28;20031;-75
2023/11/02 12:17:53;;;;;;;7.72;1.70;;;;;;;16.45;100.00;97201.66;5312541;28;20381;-73
2023/11/02 12:20:35;;;;;;;;;;;;;;;17.00;97.55;97187.88;5315717;28;20031;-73